Time;durP1;ratioP1;P1;durP2;ratioP2;P2;SDS_P1;SDS_P2;PMS_P1;PMS_P2;Temp;Humidity;BMP_temperature;BMP_pressure;BME280_temperature;BME280_humidity;BME280_pressure;Samples;Min_cycle;Max_cycle;Signal;HPM_P1;HPM_P2
2023/05/22 05:26:16;;;;;;;65.40;58.40;;;24.00;86.50;;;;;;5999276;29;117093;-67
2023/05/22 05:29:19;;;;;;;60.90;54.28;;;23.90;86.60;;;;;;6004320;29;89340;-66
2023/05/22 05:32:22;;;;;;;56.33;50.33;;;23.90;86.60;;;;;;6014599;29;88004;-66
2023/05/22 05:35:26;;;;;;;54.30;47.95;;;23.90;86.60;;;;;;6004134;29;88048;-66
2023/05/22 05:38:30;;;;;;;48.55;43.58;;;23.90;86.50;;;;;;6015690;29;87658;-67
2023/05/22 05:42:20;;;;;;;;;;;;;;;;;;;;;
2023/05/22 05:45:22;;;;;;;44.10;39.42;;;23.90;86.50;;;;;;6011590;29;118084;-67
2023/05/22 05:48:24;;;;;;;41.38;36.97;;;23.90;86.70;;;;;;6027862;29;89976;-68
2023/05/22 05:51:26;;;;;;;41.15;36.75;;;23.90;87.10;;;;;;6011791;29;89127;-67
2023/05/22 05:54:31;;;;;;;41.38;37.05;;;23.90;89.80;;;;;;6014160;29;89214;-67
2023/05/22 05:57:34;;;;;;;40.47;36.10;;;23.90;90.00;;;;;;6016776;29;89347;-67
2023/05/22 06:00:37;;;;;;;40.08;35.97;;;23.90;89.80;;;;;;6013842;29;89382;-67
2023/05/22 06:03:39;;;;;;;37.35;33.55;;;23.90;89.40;;;;;;6011662;29;89076;-68
2023/05/22 06:06:43;;;;;;;36.85;33.17;;;23.80;88.90;;;;;;6002338;29;88907;-67
2023/05/22 06:09:45;;;;;;;36.10;32.40;;;23.90;89.00;;;;;;6015725;29;88358;-66
2023/05/22 06:12:48;;;;;;;34.95;31.48;;;23.80;88.90;;;;;;6013252;29;89231;-67
2023/05/22 06:15:50;;;;;;;36.67;33.08;;;23.90;89.10;;;;;;6013602;29;89433;-66
2023/05/22 06:18:52;;;;;;;34.17;30.58;;;23.90;88.90;;;;;;6013709;29;89954;-67
2023/05/22 06:21:54;;;;;;;31.45;28.35;;;23.90;88.90;;;;;;6024457;29;89122;-67
2023/05/22 06:24:56;;;;;;;27.25;24.45;;;23.90;90.00;;;;;;6004144;29;89098;-67
2023/05/22 06:28:00;;;;;;;27.08;24.40;;;23.90;88.80;;;;;;6025352;29;89074;-67
2023/05/22 06:31:02;;;;;;;26.10;23.45;;;23.90;88.50;;;;;;6012515;29;89360;-67
2023/05/22 06:34:04;;;;;;;25.05;22.50;;;23.90;88.50;;;;;;6012109;29;88756;-67
2023/05/22 06:37:06;;;;;;;24.33;22.02;;;23.80;88.60;;;;;;6017169;29;89193;-67
2023/05/22 06:40:10;;;;;;;23.13;20.92;;;23.80;88.50;;;;;;6006265;29;88479;-66
2023/05/22 06:43:13;;;;;;;21.00;18.88;;;23.80;88.50;;;;;;5999342;29;89213;-67
2023/05/22 06:46:15;;;;;;;20.58;18.60;;;23.80;88.50;;;;;;6009247;29;89284;-66
2023/05/22 06:49:17;;;;;;;21.08;18.98;;;23.80;88.70;;;;;;6008853;29;90285;-67
2023/05/22 06:52:19;;;;;;;20.23;18.17;;;23.80;88.70;;;;;;6000048;29;89165;-67
2023/05/22 06:55:21;;;;;;;19.83;17.88;;;23.90;88.80;;;;;;6013839;29;89246;-67
2023/05/22 06:58:25;;;;;;;18.08;16.30;;;23.80;88.60;;;;;;6009767;29;89224;-67
2023/05/22 07:01:28;;;;;;;17.52;15.65;;;23.80;88.60;;;;;;6011361;29;89357;-67
2023/05/22 07:04:30;;;;;;;16.52;15.02;;;23.90;88.50;;;;;;6003656;29;88818;-68
2023/05/22 07:07:32;;;;;;;16.63;14.93;;;23.80;88.40;;;;;;6011479;29;87217;-67
2023/05/22 07:10:34;;;;;;;16.15;14.55;;;23.80;88.60;;;;;;6005463;29;88557;-66
2023/05/22 07:13:37;;;;;;;15.15;13.77;;;23.80;88.60;;;;;;6009816;29;89198;-66
2023/05/22 07:16:39;;;;;;;16.17;14.52;;;23.80;88.80;;;;;;6008344;29;89316;-66
2023/05/22 07:19:41;;;;;;;15.90;14.40;;;23.80;88.90;;;;;;6012452;29;90116;-66
2023/05/22 07:22:43;;;;;;;15.95;14.45;;;23.80;89.00;;;;;;6000778;29;89293;-66
2023/05/22 07:25:45;;;;;;;15.43;14.02;;;23.80;89.00;;;;;;6012315;29;89036;-67
2023/05/22 07:28:48;;;;;;;15.63;14.18;;;23.80;89.00;;;;;;6005753;29;89015;-67
2023/05/22 07:31:50;;;;;;;15.20;13.80;;;23.80;89.10;;;;;;6010223;29;89084;-66
2023/05/22 07:34:52;;;;;;;14.93;13.52;;;23.80;89.30;;;;;;6010595;29;89134;-67
2023/05/22 07:37:54;;;;;;;14.27;12.90;;;23.80;89.50;;;;;;6014391;29;89484;-67
2023/05/22 07:40:57;;;;;;;15.43;13.82;;;23.70;89.60;;;;;;6011697;29;88351;-67
2023/05/22 07:44:00;;;;;;;14.73;13.32;;;23.80;89.90;;;;;;6006672;29;89086;-67
2023/05/22 07:47:02;;;;;;;14.55;13.07;;;23.80;89.90;;;;;;6009785;29;89037;-67
2023/05/22 07:50:05;;;;;;;13.98;12.57;;;23.80;89.90;;;;;;6019056;29;91422;-67
2023/05/22 07:53:07;;;;;;;14.02;12.73;;;23.80;90.00;;;;;;6003340;29;89357;-66
2023/05/22 07:56:10;;;;;;;13.80;12.50;;;23.80;90.00;;;;;;6010021;29;88971;-66
2023/05/22 07:59:13;;;;;;;14.50;13.15;;;23.80;90.00;;;;;;6003114;29;89565;-66
2023/05/22 08:02:15;;;;;;;13.43;12.23;;;23.80;90.00;;;;;;6010353;29;89130;-67
2023/05/22 08:05:17;;;;;;;12.63;11.40;;;23.80;90.00;;;;;;6004993;29;89721;-67
2023/05/22 08:08:19;;;;;;;12.75;11.48;;;23.80;90.30;;;;;;6001818;29;89153;-67
2023/05/22 08:11:21;;;;;;;12.45;11.15;;;23.80;90.50;;;;;;6012822;29;88364;-68
2023/05/22 08:14:25;;;;;;;12.30;11.10;;;23.80;90.60;;;;;;6012309;29;89133;-68
2023/05/22 08:17:27;;;;;;;12.02;10.77;;;23.90;90.70;;;;;;6002565;29;89075;-68
2023/05/22 08:20:29;;;;;;;11.02;9.93;;;23.80;90.80;;;;;;6007826;29;90020;-67
2023/05/22 08:23:31;;;;;;;11.45;10.27;;;23.80;90.70;;;;;;5999675;29;89354;-67
2023/05/22 08:26:33;;;;;;;11.30;10.27;;;23.90;90.70;;;;;;6009320;29;90137;-67
2023/05/22 08:29:36;;;;;;;10.70;9.70;;;23.80;90.50;;;;;;6015436;29;88981;-67
2023/05/22 08:32:38;;;;;;;10.82;9.82;;;23.90;90.40;;;;;;6011139;29;89410;-67
2023/05/22 08:35:40;;;;;;;11.10;10.00;;;23.80;90.20;;;;;;6016267;29;89763;-67
2023/05/22 08:38:42;;;;;;;10.45;9.38;;;23.80;90.30;;;;;;6003305;29;89112;-67
2023/05/22 08:41:46;;;;;;;10.30;9.40;;;23.80;90.30;;;;;;6009625;29;88618;-67
2023/05/22 08:44:49;;;;;;;10.02;9.02;;;23.80;90.20;;;;;;6012666;29;89148;-67
2023/05/22 08:47:54;;;;;;;9.90;8.35;;;23.80;90.30;;;;;;6017818;29;90343;-67
2023/05/22 08:50:58;;;;;;;10.35;9.35;;;23.80;90.30;;;;;;6016908;29;89152;-67
2023/05/22 08:54:02;;;;;;;9.80;8.82;;;23.70;90.20;;;;;;6010162;29;89313;-67
2023/05/22 08:57:05;;;;;;;9.20;8.30;;;23.80;90.20;;;;;;6006225;29;89209;-67
2023/05/22 09:00:10;;;;;;;9.57;8.68;;;23.80;90.20;;;;;;6005162;29;89030;-67
2023/05/22 09:03:13;;;;;;;9.50;8.70;;;23.80;90.20;;;;;;6005045;29;89127;-67
2023/05/22 09:06:16;;;;;;;9.27;8.40;;;23.80;90.20;;;;;;6010712;29;89731;-67
2023/05/22 09:09:18;;;;;;;9.80;8.90;;;23.80;90.20;;;;;;6014326;29;89516;-67
2023/05/22 09:12:20;;;;;;;9.63;8.63;;;23.80;90.20;;;;;;6011659;29;88455;-67
2023/05/22 09:15:28;;;;;;;9.13;8.32;;;23.70;90.20;;;;;;6017024;29;89092;-67
2023/05/22 09:18:31;;;;;;;9.10;8.27;;;23.70;90.20;;;;;;6016280;29;88044;-67
2023/05/22 09:21:36;;;;;;;9.43;8.52;;;23.80;90.40;;;;;;6009709;29;90075;-67
2023/05/22 09:24:40;;;;;;;9.00;8.10;;;23.80;90.30;;;;;;6017079;29;88411;-67
2023/05/22 09:27:45;;;;;;;8.98;8.18;;;23.80;90.20;;;;;;6010159;29;89014;-68
2023/05/22 09:30:50;;;;;;;9.00;8.20;;;23.80;90.30;;;;;;6016329;29;88271;-67
2023/05/22 09:33:52;;;;;;;9.27;8.38;;;23.80;90.30;;;;;;6004585;29;89976;-67
2023/05/22 09:37:02;;;;;;;9.15;8.35;;;23.80;90.20;;;;;;6016042;29;89042;-67
2023/05/22 09:40:05;;;;;;;8.77;8.07;;;23.80;90.20;;;;;;6017870;29;88006;-67
2023/05/22 09:43:08;;;;;;;9.25;8.40;;;23.80;90.20;;;;;;6006324;29;88613;-68
2023/05/22 09:46:16;;;;;;;8.88;8.18;;;23.80;90.20;;;;;;6013719;29;89171;-67
2023/05/22 09:49:18;;;;;;;9.75;8.85;;;23.80;90.30;;;;;;6015600;29;89154;-66
2023/05/22 09:52:22;;;;;;;9.43;8.52;;;23.70;90.40;;;;;;6012856;29;90046;-64
2023/05/22 09:55:25;;;;;;;8.30;7.60;;;23.70;90.40;;;;;;6006463;29;89155;-65
2023/05/22 09:58:30;;;;;;;9.55;8.18;;;23.80;90.50;;;;;;6017601;29;89178;-64
2023/05/22 10:01:35;;;;;;;10.68;8.40;;;23.80;91.20;;;;;;5997855;29;89158;-65
2023/05/22 10:04:39;;;;;;;8.57;7.88;;;23.80;92.30;;;;;;6013973;29;89303;-64
2023/05/22 10:07:48;;;;;;;9.68;8.68;;;23.80;92.00;;;;;;6014006;29;89091;-67
2023/05/22 10:10:52;;;;;;;9.90;8.68;;;23.80;93.10;;;;;;6008205;29;89247;-66
2023/05/22 10:13:57;;;;;;;10.63;9.18;;;23.90;99.90;;;;;;6004913;29;88389;-68
2023/05/22 10:17:03;;;;;;;11.27;8.68;;;23.90;96.10;;;;;;6013895;29;89286;-69
2023/05/22 10:20:06;;;;;;;9.23;8.43;;;23.90;94.80;;;;;;6016016;29;88139;-68
2023/05/22 10:23:10;;;;;;;8.95;8.15;;;24.00;94.10;;;;;;6014481;29;90009;-67
2023/05/22 10:26:12;;;;;;;9.60;8.57;;;24.00;93.60;;;;;;6002794;29;88832;-68
2023/05/22 10:29:21;;;;;;;9.75;8.85;;;24.00;93.40;;;;;;6013267;29;88109;-66
2023/05/22 10:32:33;;;;;;;8.60;7.90;;;24.00;93.00;;;;;;6008001;29;88918;-67
2023/05/22 10:35:42;;;;;;;8.98;8.18;;;24.00;92.90;;;;;;6013329;29;89228;-68
2023/05/22 10:38:59;;;;;;;9.15;8.25;;;24.10;92.90;;;;;;6012246;29;91651;-70
2023/05/22 10:42:01;;;;;;;9.23;8.32;;;24.00;92.50;;;;;;6019356;29;89335;-68
2023/05/22 10:45:06;;;;;;;9.05;8.13;;;24.00;92.20;;;;;;6003713;29;88392;-67
2023/05/22 10:48:11;;;;;;;7.80;7.10;;;24.00;91.90;;;;;;6010636;29;89093;-68
2023/05/22 10:51:14;;;;;;;8.48;7.68;;;24.00;91.50;;;;;;6003311;29;89017;-67
2023/05/22 10:54:16;;;;;;;8.15;7.35;;;24.00;91.20;;;;;;6002415;29;89913;-67
2023/05/22 10:57:19;;;;;;;8.50;7.68;;;24.00;91.10;;;;;;6012617;29;89114;-67
2023/05/22 11:00:24;;;;;;;8.15;7.45;;;24.00;91.00;;;;;;6005928;29;89202;-67
2023/05/22 11:03:28;;;;;;;8.40;7.18;;;24.00;90.80;;;;;;6007070;29;88838;-67
2023/05/22 11:06:35;;;;;;;7.00;6.40;;;24.00;90.70;;;;;;5993951;29;89252;-67
2023/05/22 11:09:41;;;;;;;7.80;7.00;;;23.90;90.70;;;;;;6014491;29;89575;-67
2023/05/22 11:12:44;;;;;;;8.55;7.30;;;23.90;90.80;;;;;;6005009;29;88012;-66
2023/05/22 11:15:46;;;;;;;7.85;7.05;;;23.90;90.70;;;;;;5993809;29;88325;-67
2023/05/22 11:19:00;;;;;;;8.32;7.60;;;23.90;90.70;;;;;;6014485;29;89134;-66
2023/05/22 11:22:04;;;;;;;7.72;7.00;;;23.90;90.70;;;;;;6016256;29;89171;-67
2023/05/22 11:25:11;;;;;;;8.05;7.28;;;23.90;90.70;;;;;;6007430;29;89656;-66
2023/05/22 11:28:14;;;;;;;8.25;7.30;;;23.90;90.80;;;;;;6003852;29;89030;-67
2023/05/22 11:31:17;;;;;;;7.47;6.80;;;23.90;90.80;;;;;;5992038;29;89643;-67
2023/05/22 11:34:21;;;;;;;7.70;6.95;;;23.90;90.90;;;;;;5999276;29;89104;-67
2023/05/22 11:37:23;;;;;;;7.35;6.75;;;23.90;90.90;;;;;;6007287;29;89257;-67
2023/05/22 11:40:28;;;;;;;7.53;6.80;;;23.90;91.00;;;;;;6004095;29;89429;-67
2023/05/22 11:43:33;;;;;;;7.40;6.80;;;23.90;91.00;;;;;;6004987;29;88041;-68
2023/05/22 11:46:35;;;;;;;7.40;6.70;;;23.90;91.00;;;;;;6014372;29;88399;-68
2023/05/22 11:49:40;;;;;;;7.13;6.43;;;23.90;91.00;;;;;;6001509;29;89057;-67
2023/05/22 11:52:42;;;;;;;7.53;6.82;;;23.90;91.00;;;;;;6006626;29;89460;-67
2023/05/22 11:55:44;;;;;;;7.43;6.72;;;23.90;91.00;;;;;;6004625;29;90404;-67
2023/05/22 11:58:48;;;;;;;7.47;6.78;;;23.90;90.90;;;;;;6012093;29;89160;-67
2023/05/22 12:01:50;;;;;;;7.20;6.47;;;23.90;90.90;;;;;;5995737;29;88910;-67
2023/05/22 12:04:56;;;;;;;7.20;6.60;;;23.90;90.90;;;;;;6033935;29;89068;-67
2023/05/22 12:07:58;;;;;;;6.57;6.05;;;23.90;90.90;;;;;;6020078;29;89161;-67
2023/05/22 12:11:00;;;;;;;6.85;6.25;;;23.90;90.90;;;;;;6018560;29;91049;-68
2023/05/22 12:14:03;;;;;;;7.25;6.65;;;23.90;91.00;;;;;;6020610;29;88947;-68
2023/05/22 12:17:06;;;;;;;6.35;5.75;;;23.90;91.00;;;;;;6018040;29;88439;-68
2023/05/22 12:20:13;;;;;;;6.78;6.18;;;23.90;91.10;;;;;;6020351;29;89109;-69
2023/05/22 12:23:25;;;;;;;7.00;6.30;;;23.90;91.20;;;;;;6021298;29;89855;-68
2023/05/22 12:26:27;;;;;;;6.90;6.30;;;23.90;91.10;;;;;;6014644;29;92128;-68
2023/05/22 12:29:29;;;;;;;7.80;7.00;;;23.90;91.20;;;;;;6022493;29;89034;-68
2023/05/22 12:32:32;;;;;;;6.93;6.22;;;23.90;91.50;;;;;;6019861;29;89079;-67
2023/05/22 12:35:38;;;;;;;7.13;6.53;;;23.90;91.80;;;;;;6020004;29;87836;-66
2023/05/22 12:38:41;;;;;;;6.90;6.30;;;23.90;91.80;;;;;;6037872;29;89180;-67
2023/05/22 12:41:44;;;;;;;6.93;6.22;;;23.90;90.80;;;;;;6021865;29;89090;-67
2023/05/22 12:44:46;;;;;;;6.82;6.22;;;23.90;90.20;;;;;;6014386;29;88972;-67
2023/05/22 12:47:48;;;;;;;6.40;5.88;;;23.90;90.00;;;;;;6018208;29;88906;-67
2023/05/22 12:50:52;;;;;;;7.68;6.60;;;24.00;89.40;;;;;;6018700;29;89429;-67
2023/05/22 12:53:55;;;;;;;6.78;6.15;;;23.90;89.10;;;;;;6011041;29;88728;-68
2023/05/22 12:56:57;;;;;;;6.70;6.10;;;23.90;89.10;;;;;;6007601;29;89996;-70
2023/05/22 12:59:59;;;;;;;7.10;6.40;;;24.00;88.80;;;;;;6020667;29;89050;-69
2023/05/22 13:03:02;;;;;;;7.22;6.32;;;23.90;88.20;;;;;;6018659;29;89448;-69
2023/05/22 13:06:05;;;;;;;6.63;6.00;;;23.90;86.30;;;;;;6017610;29;89101;-69
2023/05/22 13:09:07;;;;;;;6.75;6.25;;;23.90;85.70;;;;;;6021822;29;89094;-68
2023/05/22 13:12:09;;;;;;;6.25;5.75;;;23.90;84.40;;;;;;6003827;29;88021;-69
2023/05/22 13:15:14;;;;;;;6.50;5.90;;;23.90;84.30;;;;;;6013323;29;89044;-69
2023/05/22 13:18:16;;;;;;;7.18;5.82;;;23.90;85.00;;;;;;6010556;29;88521;-69
2023/05/22 13:21:19;;;;;;;6.20;5.70;;;24.00;85.70;;;;;;6015860;29;88458;-69
2023/05/22 13:24:21;;;;;;;6.57;5.97;;;23.90;86.60;;;;;;6013251;29;89104;-69
2023/05/22 13:27:23;;;;;;;6.70;5.95;;;23.90;87.60;;;;;;6015572;29;89966;-69
2023/05/22 13:30:25;;;;;;;6.30;5.60;;;23.90;88.20;;;;;;6006185;29;88023;-69
2023/05/22 13:33:27;;;;;;;6.82;6.20;;;24.00;87.40;;;;;;6013684;29;89127;-69
2023/05/22 13:36:31;;;;;;;7.18;6.43;;;24.00;86.30;;;;;;6012046;29;89070;-69
2023/05/22 13:39:33;;;;;;;6.82;6.22;;;23.90;84.60;;;;;;6018737;29;89181;-69
2023/05/22 13:42:35;;;;;;;7.88;6.32;;;23.90;83.90;;;;;;6003364;29;88374;-69
2023/05/22 13:45:37;;;;;;;6.22;5.72;;;23.90;83.20;;;;;;6015463;29;89043;-70
2023/05/22 13:48:39;;;;;;;6.35;5.75;;;23.90;83.30;;;;;;6015937;29;87283;-69
2023/05/22 13:51:43;;;;;;;6.60;5.90;;;23.90;83.70;;;;;;5995635;29;88339;-69
2023/05/22 13:54:45;;;;;;;6.85;6.25;;;23.90;83.20;;;;;;6021442;29;89097;-69
2023/05/22 13:57:47;;;;;;;6.43;5.82;;;23.90;82.70;;;;;;6017783;29;90346;-70
2023/05/22 14:00:49;;;;;;;6.40;5.75;;;24.00;82.70;;;;;;6016579;29;89131;-69
2023/05/22 14:03:51;;;;;;;6.60;6.00;;;23.90;82.70;;;;;;6016163;29;89068;-70
2023/05/22 14:06:54;;;;;;;6.78;6.03;;;24.00;82.40;;;;;;6013372;29;87929;-69
2023/05/22 14:09:56;;;;;;;6.05;5.53;;;24.00;81.50;;;;;;5997749;29;89166;-70
2023/05/22 14:12:58;;;;;;;5.93;5.43;;;23.90;82.00;;;;;;6017124;29;89169;-69
2023/05/22 14:16:00;;;;;;;6.18;5.68;;;23.90;82.80;;;;;;6015705;29;89110;-69
2023/05/22 14:19:02;;;;;;;6.07;5.55;;;23.90;83.70;;;;;;6015948;29;88304;-69
2023/05/22 14:22:05;;;;;;;5.82;5.32;;;24.00;84.50;;;;;;6014579;29;88442;-70
2023/05/22 14:25:08;;;;;;;6.05;5.47;;;23.90;84.60;;;;;;6003887;29;87989;-69
2023/05/22 14:28:10;;;;;;;6.40;5.90;;;23.90;84.50;;;;;;6012708;29;90322;-69
2023/05/22 14:31:12;;;;;;;6.38;5.78;;;23.90;84.40;;;;;;6005575;29;89090;-69
2023/05/22 14:34:15;;;;;;;5.75;5.25;;;23.90;83.70;;;;;;6017459;29;88775;-69
2023/05/22 14:37:18;;;;;;;8.05;6.20;;;23.90;82.70;;;;;;6010514;29;88105;-69
2023/05/22 14:40:20;;;;;;;7.50;6.50;;;23.90;85.60;;;;;;6017361;29;90135;-69
2023/05/22 14:43:22;;;;;;;6.50;5.90;;;24.00;85.90;;;;;;6012719;29;89087;-69
2023/05/22 14:46:24;;;;;;;6.57;5.70;;;24.00;84.00;;;;;;6014766;29;89582;-69
2023/05/22 14:49:26;;;;;;;6.20;5.60;;;24.00;83.90;;;;;;6015112;29;88391;-69
2023/05/22 14:52:30;;;;;;;8.25;6.70;;;24.00;82.80;;;;;;6013400;29;89481;-69
2023/05/22 14:55:32;;;;;;;6.38;5.80;;;24.00;82.20;;;;;;6013804;29;89216;-69
2023/05/22 14:58:34;;;;;;;6.78;6.07;;;24.00;81.50;;;;;;6016020;29;90051;-69
2023/05/22 15:01:35;;;;;;;6.60;6.00;;;24.00;81.70;;;;;;6018993;29;88986;-70
2023/05/22 15:04:38;;;;;;;6.88;6.15;;;24.00;82.70;;;;;;6024491;29;89120;-70
2023/05/22 15:07:41;;;;;;;6.40;5.80;;;24.00;84.50;;;;;;6015282;29;89109;-70
2023/05/22 15:10:43;;;;;;;6.55;5.95;;;24.00;85.10;;;;;;6021534;28;89189;-70
2023/05/22 15:13:45;;;;;;;6.57;5.93;;;24.00;85.20;;;;;;6020300;29;89176;-70
2023/05/22 15:16:48;;;;;;;7.22;5.75;;;24.00;86.10;;;;;;6013205;29;88918;-69
2023/05/22 15:19:50;;;;;;;7.05;6.20;;;24.00;86.10;;;;;;6013404;29;88235;-69
2023/05/22 15:22:53;;;;;;;6.95;5.97;;;23.90;83.80;;;;;;6006527;29;88637;-69
2023/05/22 15:25:55;;;;;;;6.18;5.57;;;24.00;83.50;;;;;;6015473;29;89112;-69
2023/05/22 15:29:00;;;;;;;7.63;5.63;;;24.00;83.20;;;;;;6002256;29;90006;-69
2023/05/22 15:32:02;;;;;;;6.30;5.70;;;24.00;82.70;;;;;;6001710;29;89221;-69
2023/05/22 15:35:05;;;;;;;7.05;5.93;;;24.00;82.60;;;;;;6019941;29;88870;-70
2023/05/22 15:38:11;;;;;;;6.55;5.95;;;24.00;83.10;;;;;;6034255;29;88079;-65
2023/05/22 15:41:13;;;;;;;6.85;6.13;;;24.10;87.00;;;;;;6015137;29;89257;-66
2023/05/22 15:44:15;;;;;;;9.85;6.40;;;24.00;87.70;;;;;;6013469;29;89185;-65
2023/05/22 15:47:17;;;;;;;6.70;5.90;;;24.10;87.80;;;;;;6015652;29;89134;-66
2023/05/22 15:50:19;;;;;;;8.73;7.88;;;24.10;88.60;;;;;;6014190;29;88161;-65
2023/05/22 15:53:22;;;;;;;252.13;77.50;;;24.10;90.00;;;;;;6005092;29;89119;-68
2023/05/22 15:56:24;;;;;;;418.38;121.32;;;24.10;93.40;;;;;;6012531;29;90081;-66
2023/05/22 15:59:26;;;;;;;156.75;53.38;;;24.30;99.90;;;;;;6008613;29;90169;-67
2023/05/22 16:02:28;;;;;;;126.60;46.03;;;24.40;99.90;;;;;;6008171;29;88016;-67
2023/05/22 16:05:33;;;;;;;94.05;37.08;;;24.40;99.90;;;;;;6006131;29;89420;-68
2023/05/22 16:08:36;;;;;;;84.60;31.77;;;24.50;98.40;;;;;;6012628;29;87619;-68
2023/05/22 16:11:38;;;;;;;73.13;29.90;;;24.50;95.00;;;;;;6012444;29;89053;-68
2023/05/22 16:14:40;;;;;;;55.10;24.30;;;24.50;94.20;;;;;;6013069;29;89053;-68
2023/05/22 16:17:42;;;;;;;39.92;20.90;;;24.60;92.90;;;;;;6010172;29;89470;-68
2023/05/22 16:20:44;;;;;;;26.92;16.27;;;24.60;91.30;;;;;;6003982;29;88434;-68
2023/05/22 16:23:48;;;;;;;27.42;15.13;;;24.70;90.60;;;;;;6022764;29;89199;-68
2023/05/22 16:26:50;;;;;;;19.48;13.60;;;24.70;90.50;;;;;;6000793;29;88023;-68
2023/05/22 16:29:52;;;;;;;18.40;13.05;;;24.70;90.40;;;;;;6005340;29;90386;-68
2023/05/22 16:32:54;;;;;;;15.73;12.20;;;24.80;90.10;;;;;;6009673;29;89062;-68
2023/05/22 16:35:56;;;;;;;17.20;12.30;;;24.80;90.20;;;;;;6007104;29;89475;-70
2023/05/22 16:38:59;;;;;;;14.65;13.10;;;24.90;90.60;;;;;;6013210;29;89121;-70
2023/05/22 16:42:01;;;;;;;13.63;11.60;;;24.90;91.00;;;;;;6015095;29;89413;-69
2023/05/22 16:45:03;;;;;;;13.00;11.57;;;24.90;90.20;;;;;;6015897;29;89185;-69
2023/05/22 16:48:06;;;;;;;11.57;10.38;;;24.90;89.80;;;;;;6013488;29;89050;-69
2023/05/22 16:51:09;;;;;;;14.82;12.30;;;24.90;89.60;;;;;;6015799;29;88749;-70
2023/05/22 16:54:12;;;;;;;11.95;9.82;;;25.00;90.20;;;;;;6015506;29;90250;-67
2023/05/22 16:57:14;;;;;;;14.43;10.32;;;25.20;90.10;;;;;;6016706;29;89131;-70
2023/05/22 17:00:17;;;;;;;13.85;10.13;;;25.40;89.50;;;;;;6007942;29;89966;-67
2023/05/22 17:03:20;;;;;;;12.32;8.85;;;25.50;89.20;;;;;;6014688;29;88339;-67
2023/05/22 17:06:22;;;;;;;11.43;9.05;;;25.60;89.40;;;;;;6013147;29;89227;-67
2023/05/22 17:09:26;;;;;;;15.82;11.65;;;25.50;90.30;;;;;;6012884;29;89040;-67
2023/05/22 17:12:28;;;;;;;14.30;9.63;;;25.60;97.70;;;;;;6012990;29;89230;-67
2023/05/22 17:15:30;;;;;;;12.40;10.43;;;25.60;98.60;;;;;;6013066;29;89480;-67
2023/05/22 17:18:32;;;;;;;11.85;9.40;;;25.70;99.90;;;;;;6011571;29;89177;-69
2023/05/22 17:21:35;;;;;;;10.43;8.50;;;25.80;99.90;;;;;;6010288;29;88532;-68
2023/05/22 17:24:38;;;;;;;10.88;9.05;;;25.80;97.00;;;;;;6012225;29;89453;-68
2023/05/22 17:27:40;;;;;;;11.85;9.70;;;25.70;94.80;;;;;;6014713;29;89072;-69
2023/05/22 17:30:43;;;;;;;14.68;11.05;;;25.70;93.90;;;;;;6013624;29;90053;-70
2023/05/22 17:33:45;;;;;;;24.77;13.02;;;25.60;94.50;;;;;;6013189;29;89271;-68
2023/05/22 17:36:47;;;;;;;25.10;14.38;;;25.60;95.10;;;;;;6016463;29;89075;-70
2023/05/22 17:39:51;;;;;;;23.55;12.80;;;25.50;95.50;;;;;;6023513;29;89009;-70
2023/05/22 17:42:53;;;;;;;17.55;11.25;;;25.50;95.20;;;;;;6018680;29;89079;-70
2023/05/22 17:45:55;;;;;;;15.65;10.52;;;25.40;95.00;;;;;;6015769;29;89160;-69
2023/05/22 17:48:57;;;;;;;14.65;10.13;;;25.40;94.60;;;;;;6013526;29;89228;-70
2023/05/22 17:51:59;;;;;;;14.07;9.80;;;25.30;94.50;;;;;;6028041;29;88609;-69
2023/05/22 17:55:03;;;;;;;12.98;9.25;;;25.30;94.30;;;;;;6018537;29;88320;-69
2023/05/22 17:58:05;;;;;;;12.02;9.02;;;25.20;94.10;;;;;;6015223;29;89183;-69
2023/05/22 18:01:07;;;;;;;11.68;8.50;;;25.20;94.00;;;;;;6004624;29;90163;-70
2023/05/22 18:04:10;;;;;;;11.82;9.27;;;25.20;93.60;;;;;;6010926;29;89141;-71
2023/05/22 18:07:12;;;;;;;9.70;8.35;;;25.20;94.10;;;;;;6003897;29;89082;-69
2023/05/22 18:10:15;;;;;;;10.68;8.88;;;25.10;93.90;;;;;;6009326;29;89278;-71
2023/05/22 18:13:18;;;;;;;11.35;8.95;;;25.10;94.00;;;;;;6014997;29;89113;-70
2023/05/22 18:16:20;;;;;;;10.65;8.80;;;25.10;94.30;;;;;;6016248;29;87591;-70
2023/05/22 18:19:22;;;;;;;9.77;7.85;;;25.10;94.20;;;;;;6005935;29;89000;-71
2023/05/22 18:22:24;;;;;;;9.68;8.32;;;25.10;94.40;;;;;;6004554;29;88391;-70
2023/05/22 18:25:28;;;;;;;10.38;8.57;;;25.00;94.40;;;;;;6011282;29;89140;-71
2023/05/22 18:28:30;;;;;;;10.38;8.13;;;25.00;94.40;;;;;;6014291;29;89158;-71
2023/05/22 18:31:32;;;;;;;11.32;8.00;;;25.00;93.50;;;;;;6010622;29;89895;-71
2023/05/22 18:34:34;;;;;;;8.73;7.63;;;24.90;93.00;;;;;;6013887;29;91840;-71
2023/05/22 18:37:36;;;;;;;8.20;7.40;;;24.90;92.90;;;;;;6011853;29;89540;-70
2023/05/22 18:40:39;;;;;;;10.52;7.93;;;24.90;92.90;;;;;;6022030;29;89540;-71
2023/05/22 18:43:42;;;;;;;8.50;7.43;;;24.90;92.80;;;;;;6013955;29;88738;-70
2023/05/22 18:46:44;;;;;;;8.82;7.68;;;24.90;92.70;;;;;;6008317;29;89120;-71
2023/05/22 18:49:46;;;;;;;8.57;7.63;;;24.90;92.70;;;;;;6008889;29;89847;-71
2023/05/22 18:52:48;;;;;;;9.68;7.28;;;24.90;92.60;;;;;;6016477;29;88329;-70
2023/05/22 18:55:52;;;;;;;8.77;7.60;;;24.90;92.60;;;;;;6012715;29;89631;-70
2023/05/22 18:58:54;;;;;;;9.05;7.38;;;24.90;92.60;;;;;;6013260;29;88795;-71
2023/05/22 19:01:56;;;;;;;8.05;7.25;;;24.80;92.50;;;;;;6012638;29;90091;-70
2023/05/22 19:04:58;;;;;;;7.93;7.13;;;24.80;92.50;;;;;;6011358;29;89509;-71
2023/05/22 19:08:00;;;;;;;8.30;7.50;;;24.80;92.50;;;;;;6008351;29;87759;-69
2023/05/22 19:11:04;;;;;;;8.25;7.45;;;24.80;92.50;;;;;;6005363;29;89006;-70
2023/05/22 19:14:05;;;;;;;8.38;7.50;;;24.80;92.60;;;;;;6006277;29;89056;-69
2023/05/22 19:17:08;;;;;;;8.85;8.00;;;24.70;92.60;;;;;;6008434;29;89084;-69
2023/05/22 19:20:11;;;;;;;8.35;7.40;;;24.70;95.70;;;;;;6007949;29;89084;-70
2023/05/22 19:23:13;;;;;;;8.90;7.85;;;24.80;96.00;;;;;;5996728;29;89012;-68
2023/05/22 19:26:16;;;;;;;8.40;7.50;;;24.80;95.50;;;;;;6004659;29;88936;-70
2023/05/22 19:29:18;;;;;;;8.02;7.22;;;24.80;95.00;;;;;;6020230;29;89138;-69
2023/05/22 19:32:20;;;;;;;8.20;7.40;;;24.80;94.60;;;;;;6011817;29;88860;-68
2023/05/22 19:35:22;;;;;;;7.50;6.80;;;24.80;94.40;;;;;;6013395;29;90623;-69
2023/05/22 19:38:24;;;;;;;7.85;7.15;;;24.80;94.10;;;;;;6011770;29;89106;-69
2023/05/22 19:41:28;;;;;;;8.15;7.35;;;24.80;94.00;;;;;;6010708;29;87952;-70
2023/05/22 19:44:30;;;;;;;8.40;7.60;;;24.80;93.80;;;;;;5997643;29;88511;-70
2023/05/22 19:47:33;;;;;;;8.13;7.32;;;24.80;93.70;;;;;;6001256;29;89192;-69
2023/05/22 19:50:35;;;;;;;7.93;7.15;;;24.80;93.60;;;;;;6001543;29;89092;-70
2023/05/22 19:53:37;;;;;;;7.88;7.15;;;24.80;93.40;;;;;;6002770;29;87246;-69
2023/05/22 19:56:40;;;;;;;7.82;7.13;;;24.70;93.20;;;;;;6011390;29;88494;-70
2023/05/22 19:59:42;;;;;;;7.38;6.68;;;24.70;93.10;;;;;;6012541;29;89120;-69
2023/05/22 20:02:44;;;;;;;7.90;7.10;;;24.70;93.00;;;;;;6006032;29;90022;-69
2023/05/22 20:05:46;;;;;;;7.88;7.18;;;24.70;93.00;;;;;;6006794;29;89138;-69
2023/05/22 20:08:48;;;;;;;7.80;7.07;;;24.70;92.90;;;;;;6000478;29;89002;-69
2023/05/22 20:11:51;;;;;;;8.02;6.93;;;24.70;92.80;;;;;;6000961;29;88006;-70
2023/05/22 20:14:53;;;;;;;7.85;7.15;;;24.70;92.80;;;;;;6013152;29;89060;-69
2023/05/22 20:17:56;;;;;;;8.70;7.38;;;24.70;92.70;;;;;;6012711;29;90016;-69
2023/05/22 20:20:58;;;;;;;7.65;7.00;;;24.70;92.60;;;;;;6012336;29;88315;-70
2023/05/22 20:24:01;;;;;;;8.10;7.10;;;24.70;92.60;;;;;;6009104;29;88409;-70
2023/05/22 20:27:05;;;;;;;7.93;7.22;;;24.70;92.50;;;;;;6018820;29;89135;-71
2023/05/22 20:30:10;;;;;;;8.23;7.53;;;24.70;92.50;;;;;;6014157;29;89177;-70
2023/05/22 20:33:13;;;;;;;8.18;7.47;;;24.70;92.40;;;;;;6017782;29;90283;-71
2023/05/22 20:36:15;;;;;;;7.68;6.97;;;24.70;92.30;;;;;;6006857;29;89277;-70
2023/05/22 20:39:17;;;;;;;8.40;7.60;;;24.70;92.20;;;;;;6007781;29;89043;-70
2023/05/22 20:42:21;;;;;;;7.95;7.10;;;24.70;92.20;;;;;;6009744;29;89169;-70
2023/05/22 20:45:23;;;;;;;8.35;7.55;;;24.60;92.00;;;;;;6017917;29;89450;-70
2023/05/22 20:48:25;;;;;;;8.05;7.35;;;24.60;92.00;;;;;;6013277;29;88994;-70
2023/05/22 20:51:31;;;;;;;8.55;7.45;;;24.60;92.00;;;;;;6015797;29;89325;-71
2023/05/22 20:54:33;;;;;;;7.55;6.85;;;24.60;92.00;;;;;;6003023;29;88473;-70
2023/05/22 20:57:37;;;;;;;7.53;6.93;;;24.60;91.90;;;;;;6006837;29;89020;-71
2023/05/22 21:00:40;;;;;;;8.70;7.88;;;24.60;91.90;;;;;;6006163;29;89166;-71
2023/05/22 21:03:42;;;;;;;8.77;7.43;;;24.50;91.80;;;;;;6005219;29;90416;-70
2023/05/22 21:06:44;;;;;;;8.95;7.18;;;24.50;91.80;;;;;;6028970;29;89098;-71
2023/05/22 21:09:46;;;;;;;8.02;7.32;;;24.50;91.70;;;;;;6016799;29;89085;-71